Time;durP1;ratioP1;P1;durP2;ratioP2;P2;SDS_P1;SDS_P2;PMS_P1;PMS_P2;Temp;Humidity;BMP_temperature;BMP_pressure;BME280_temperature;BME280_humidity;BME280_pressure;Samples;Min_cycle;Max_cycle;Signal;HPM_P1;HPM_P2
2023/01/01 00:01:53;;;;;;;61.53;38.23;;;;;;;14.69;66.10;100680.97;5055654;28;20214;-61
2023/01/01 00:04:21;;;;;;;65.40;41.63;;;;;;;14.75;66.09;100684.81;5055909;28;20203;-60
2023/01/01 00:06:49;;;;;;;72.37;45.50;;;;;;;14.71;66.43;100691.47;5055838;28;20302;-62
2023/01/01 00:12:03;;;;;;;94.83;57.20;;;;;;;14.64;66.54;100676.16;5056033;28;20345;-61
2023/01/01 00:14:31;;;;;;;89.23;53.67;;;;;;;14.57;67.21;100687.66;5054237;28;20305;-61
2023/01/01 00:16:59;;;;;;;82.63;54.33;;;;;;;14.53;67.17;100687.16;5057436;28;20257;-61
2023/01/01 00:19:27;;;;;;;99.07;62.43;;;;;;;14.42;67.76;100690.19;5058996;28;20352;-61
2023/01/01 00:21:54;;;;;;;105.30;71.03;;;;;;;14.36;68.02;100685.47;5059165;28;20588;-60
2023/01/01 00:24:23;;;;;;;116.83;75.90;;;;;;;14.39;67.71;100693.19;5058659;28;20224;-60
2023/01/01 00:26:51;;;;;;;118.07;76.30;;;;;;;14.38;67.98;100686.16;5060149;28;20198;-60
2023/01/01 00:29:19;;;;;;;119.13;77.70;;;;;;;14.30;67.98;100680.81;5061128;28;20314;-59
2023/01/01 00:31:47;;;;;;;124.13;81.50;;;;;;;14.24;68.18;100678.81;5059619;28;20718;-62
2023/01/01 00:34:14;;;;;;;123.17;81.17;;;;;;;14.17;68.49;100678.63;5056232;28;20230;-60
2023/01/01 00:36:42;;;;;;;118.00;78.27;;;;;;;14.07;69.02;100677.16;5060618;28;20219;-59
2023/01/01 00:39:10;;;;;;;117.87;79.13;;;;;;;13.94;69.88;100689.13;5058794;28;20217;-62
2023/01/01 00:41:39;;;;;;;116.27;77.63;;;;;;;13.94;69.91;100681.13;5058421;28;20226;-59
2023/01/01 00:44:07;;;;;;;109.17;71.07;;;;;;;13.82;70.33;100674.44;5059644;28;20210;-61
2023/01/01 00:46:34;;;;;;;102.20;69.70;;;;;;;13.80;70.87;100672.94;5060880;28;20213;-60
2023/01/01 00:49:02;;;;;;;94.63;62.47;;;;;;;13.79;71.01;100677.44;5062182;28;20209;-61
2023/01/01 00:51:30;;;;;;;83.87;53.67;;;;;;;13.76;71.11;100680.44;5059768;28;20228;-61
2023/01/01 00:54:03;;;;;;;70.40;46.67;;;;;;;13.71;71.48;100676.59;5058242;28;20206;-61
2023/01/01 00:56:31;;;;;;;58.97;39.20;;;;;;;13.71;72.09;100668.59;5060373;28;20208;-60
2023/01/01 00:59:00;;;;;;;47.40;30.47;;;;;;;13.67;72.19;100665.41;5057839;28;20206;-59
2023/01/01 01:01:28;;;;;;;42.20;27.17;;;;;;;13.71;72.24;100665.94;5055593;28;20216;-62
2023/01/01 01:03:56;;;;;;;36.17;23.53;;;;;;;13.76;72.10;100661.75;5058788;28;20221;-62
2023/01/01 01:06:24;;;;;;;37.67;24.63;;;;;;;13.74;72.37;100668.25;5062983;28;20277;-63
2023/01/01 01:08:52;;;;;;;33.77;22.40;;;;;;;13.71;72.19;100666.78;5069963;28;20261;-63
2023/01/01 01:11:21;;;;;;;31.77;21.33;;;;;;;13.70;72.27;100667.75;5067696;28;20225;-64
2023/01/01 01:13:51;;;;;;;38.53;22.83;;;;;;;13.68;72.42;100666.25;5068756;28;20255;-63
2023/01/01 01:16:28;;;;;;;32.40;20.40;;;;;;;13.70;72.82;100664.25;5067490;28;20212;-62
2023/01/01 01:18:59;;;;;;;29.20;18.80;;;;;;;13.69;72.72;100674.09;5072331;28;20216;-63
2023/01/01 01:21:28;;;;;;;27.57;17.73;;;;;;;13.67;72.70;100678.72;5067950;28;20207;-63
2023/01/01 01:23:57;;;;;;;30.73;17.63;;;;;;;13.72;72.49;100679.06;5067109;28;20236;-63
2023/01/01 01:26:27;;;;;;;28.17;15.27;;;;;;;13.76;72.29;100680.44;5072123;28;20600;-63
2023/01/01 01:28:56;;;;;;;22.73;14.37;;;;;;;13.74;72.70;100682.41;5069458;28;20297;-63
2023/01/01 01:31:29;;;;;;;22.53;14.63;;;;;;;13.68;72.96;100679.56;5069623;28;20236;-63
2023/01/01 01:33:57;;;;;;;21.20;13.40;;;;;;;13.68;73.08;100688.41;5068440;28;20207;-63
2023/01/01 01:36:25;;;;;;;21.00;13.07;;;;;;;13.67;73.30;100696.56;5068118;28;20208;-63
2023/01/01 01:38:53;;;;;;;20.43;13.00;;;;;;;13.70;73.13;100690.91;5072097;28;20280;-63
2023/01/01 01:41:23;;;;;;;21.40;13.03;;;;;;;13.72;72.84;100680.94;5072184;28;20235;-63
2023/01/01 01:43:58;;;;;;;20.80;12.63;;;;;;;13.69;73.20;100683.91;5071014;28;20201;-62
2023/01/01 01:46:32;;;;;;;21.20;11.70;;;;;;;13.70;73.00;100686.41;5073367;28;20238;-63
2023/01/01 01:49:03;;;;;;;20.20;11.70;;;;;;;13.67;73.17;100685.91;5071357;28;20228;-63
2023/01/01 01:51:34;;;;;;;16.83;11.90;;;;;;;13.67;73.12;100686.72;5071835;28;20715;-63
2023/01/01 01:54:07;;;;;;;18.20;11.37;;;;;;;13.67;73.28;100681.41;5068765;28;20597;-62
2023/01/01 01:56:43;;;;;;;18.30;10.67;;;;;;;13.65;73.14;100677.22;5070651;28;20209;-62
2023/01/01 01:59:11;;;;;;;18.43;11.37;;;;;;;13.60;73.37;100680.38;5068529;28;20216;-63
2023/01/01 02:01:41;;;;;;;17.03;10.33;;;;;;;13.60;73.44;100679.56;5070148;28;20207;-63
2023/01/01 02:04:09;;;;;;;18.07;10.23;;;;;;;13.62;73.34;100686.41;5068971;28;20272;-63
2023/01/01 02:06:39;;;;;;;14.80;9.30;;;;;;;13.60;73.63;100688.38;5066158;28;20209;-63
2023/01/01 02:09:09;;;;;;;13.30;8.53;;;;;;;13.61;73.55;100679.41;5070510;28;20938;-63
2023/01/01 02:11:37;;;;;;;12.80;8.03;;;;;;;13.62;73.75;100683.72;5067978;28;20398;-63
2023/01/01 02:14:06;;;;;;;11.87;7.37;;;;;;;13.66;73.82;100686.88;5062503;28;20227;-63
2023/01/01 02:16:39;;;;;;;14.23;8.20;;;;;;;13.65;73.66;100683.38;5069644;28;20209;-64
2023/01/01 02:19:17;;;;;;;13.87;7.33;;;;;;;13.56;74.15;100695.03;5070402;28;20303;-63
2023/01/01 02:21:56;;;;;;;14.77;7.20;;;;;;;13.58;73.85;100687.69;5067298;28;20245;-63
2023/01/01 02:24:43;;;;;;;11.50;6.40;;;;;;;13.59;73.78;100689.38;5066207;28;20271;-62
2023/01/01 02:27:19;;;;;;;10.93;7.03;;;;;;;13.53;74.33;100687.38;5050694;28;20213;-64
2023/01/01 02:29:52;;;;;;;11.00;6.53;;;;;;;13.51;74.22;100682.19;5047697;28;20213;-63
2023/01/01 02:32:24;;;;;;;12.87;6.33;;;;;;;13.53;74.09;100692.69;5050254;28;20321;-63
2023/01/01 02:34:58;;;;;;;12.10;6.20;;;;;;;13.56;74.22;100697.69;5050542;28;20300;-64
2023/01/01 02:37:28;;;;;;;13.53;6.80;;;;;;;13.57;74.33;100697.53;5051347;28;20278;-63
2023/01/01 02:39:59;;;;;;;13.33;5.53;;;;;;;13.55;73.97;100693.34;5049339;28;20232;-63
2023/01/01 02:42:29;;;;;;;10.57;5.73;;;;;;;13.54;74.20;100694.38;5049604;28;20207;-63
2023/01/01 02:44:59;;;;;;;12.07;6.17;;;;;;;13.52;74.25;100699.00;5047910;28;20281;-64
2023/01/01 02:47:27;;;;;;;11.03;5.73;;;;;;;13.50;74.60;100704.50;5048431;28;20217;-63
2023/01/01 02:50:02;;;;;;;9.13;5.70;;;;;;;13.52;74.41;100699.00;5048555;28;20247;-64
2023/01/01 02:52:59;;;;;;;13.30;6.03;;;;;;;13.55;74.29;100710.16;5049326;28;20322;-64
2023/01/01 02:55:37;;;;;;;9.60;5.63;;;;;;;13.53;74.17;100711.34;5045924;28;20213;-63
2023/01/01 03:01:09;;;;;;;14.33;6.97;;;;;;;13.42;75.28;100708.97;5045398;28;20275;-64
2023/01/01 03:03:41;;;;;;;12.70;6.93;;;;;;;13.45;74.99;100711.31;5045622;28;20247;-62
2023/01/01 03:06:22;;;;;;;11.83;7.30;;;;;;;13.49;74.98;100710.00;5047076;28;20228;-62
2023/01/01 03:08:58;;;;;;;12.47;8.00;;;;;;;13.43;75.23;100718.63;5044254;28;20211;-63
2023/01/01 03:11:34;;;;;;;16.30;8.30;;;;;;;13.45;74.98;100711.31;5049678;28;20196;-63
2023/01/01 03:14:09;;;;;;;11.57;7.77;;;;;;;13.50;74.62;100714.31;5049141;28;20204;-62
2023/01/01 03:16:42;;;;;;;14.40;8.03;;;;;;;13.53;74.96;100719.34;5048697;28;20236;-63
2023/01/01 03:19:15;;;;;;;14.67;8.53;;;;;;;13.52;74.72;100715.84;5048056;28;20224;-62
2023/01/01 03:21:48;;;;;;;18.57;9.47;;;;;;;13.58;74.37;100719.69;5045784;28;20243;-62
2023/01/01 03:24:22;;;;;;;17.10;9.87;;;;;;;13.60;73.83;100709.69;5046704;28;20223;-63
2023/01/01 03:26:55;;;;;;;15.73;9.33;;;;;;;13.56;74.22;100716.34;5046436;28;20712;-62
2023/01/01 03:29:24;;;;;;;17.07;9.77;;;;;;;13.56;74.48;100717.16;5051160;28;20303;-62
2023/01/01 03:31:56;;;;;;;18.27;10.33;;;;;;;13.61;74.16;100723.84;5046356;28;20239;-62
2023/01/01 03:34:31;;;;;;;17.97;9.93;;;;;;;13.65;73.56;100725.19;5048643;28;20228;-62
2023/01/01 03:37:02;;;;;;;20.30;10.60;;;;;;;13.61;73.80;100730.03;5049096;28;20196;-62
2023/01/01 03:39:34;;;;;;;20.80;12.27;;;;;;;13.52;74.12;100723.84;5047621;28;20958;-62
2023/01/01 03:42:12;;;;;;;20.93;12.17;;;;;;;13.51;74.19;100730.16;5046809;28;20269;-63
2023/01/01 03:44:46;;;;;;;19.90;13.63;;;;;;;13.59;73.81;100744.50;5046600;28;20319;-62
2023/01/01 03:47:15;;;;;;;16.37;11.10;;;;;;;13.59;73.91;100724.00;5048274;28;20273;-62
2023/01/01 03:49:44;;;;;;;15.40;9.87;;;;;;;13.58;73.65;100733.00;5045930;28;21270;-62
2023/01/01 03:52:26;;;;;;;17.90;10.60;;;;;;;13.53;74.26;100733.50;5048292;28;20221;-64
2023/01/01 03:55:04;;;;;;;19.27;10.63;;;;;;;13.60;73.57;100733.69;5048577;28;20211;-63
2023/01/01 03:57:37;;;;;;;14.27;9.40;;;;;;;13.56;73.83;100730.50;5050708;28;20201;-63
2023/01/01 04:00:10;;;;;;;16.60;9.80;;;;;;;13.52;73.89;100734.50;5047816;28;20281;-64
2023/01/01 04:02:45;;;;;;;18.53;10.50;;;;;;;13.49;74.24;100724.13;5047250;28;20189;-63
2023/01/01 04:05:14;;;;;;;15.03;9.10;;;;;;;13.50;73.91;100724.97;5045032;28;20245;-63
2023/01/01 04:07:42;;;;;;;15.43;8.63;;;;;;;13.48;74.11;100732.28;5049360;28;20214;-64
2023/01/01 04:10:16;;;;;;;16.20;9.47;;;;;;;13.50;73.60;100743.63;5048383;28;20231;-63
2023/01/01 04:12:47;;;;;;;18.47;9.60;;;;;;;13.48;73.92;100725.13;5046818;28;20769;-63
2023/01/01 04:15:15;;;;;;;16.30;9.37;;;;;;;13.46;73.82;100731.59;5047469;28;20213;-64
2023/01/01 04:17:44;;;;;;;18.67;9.83;;;;;;;13.37;74.40;100728.06;5048837;28;20286;-64
2023/01/01 04:20:13;;;;;;;16.03;9.70;;;;;;;13.45;74.08;100727.31;5051326;28;20204;-63
2023/01/01 04:22:41;;;;;;;15.83;9.43;;;;;;;13.41;74.28;100726.78;5047009;28;20208;-63
2023/01/01 04:25:10;;;;;;;15.33;8.97;;;;;;;13.35;74.40;100729.25;5055910;28;20240;-64
2023/01/01 04:27:38;;;;;;;17.07;9.73;;;;;;;13.35;74.41;100734.56;5073363;28;20222;-64
2023/01/01 04:30:09;;;;;;;20.77;9.67;;;;;;;13.36;74.71;100733.59;5066749;28;20213;-62
2023/01/01 04:32:37;;;;;;;15.43;9.27;;;;;;;13.27;74.96;100727.38;5062937;28;20521;-63
2023/01/01 04:35:07;;;;;;;17.10;9.77;;;;;;;13.28;75.14;100733.56;5067038;28;20210;-63
2023/01/01 04:37:35;;;;;;;16.40;9.57;;;;;;;13.28;74.82;100723.72;5068558;28;20204;-62
2023/01/01 04:40:03;;;;;;;15.97;9.93;;;;;;;13.30;74.92;100727.06;5068423;28;20242;-62
2023/01/01 04:42:34;;;;;;;17.87;10.47;;;;;;;13.23;75.48;100741.16;5063398;28;20215;-62
2023/01/01 04:45:02;;;;;;;13.93;9.67;;;;;;;13.28;74.97;100728.22;5064462;28;20208;-64
2023/01/01 04:47:30;;;;;;;14.37;9.30;;;;;;;13.27;75.04;100748.69;5070090;28;20248;-63
2023/01/01 04:49:58;;;;;;;15.73;9.20;;;;;;;13.26;74.99;100751.50;5068291;28;20208;-62
2023/01/01 04:52:27;;;;;;;16.33;9.23;;;;;;;13.24;75.09;100738.34;5069187;28;20208;-62
2023/01/01 04:54:55;;;;;;;18.20;10.27;;;;;;;13.20;75.17;100736.97;5072906;28;20212;-62
2023/01/01 04:57:22;;;;;;;15.10;9.30;;;;;;;13.19;75.08;100743.34;5068976;28;20931;-63
2023/01/01 04:59:50;;;;;;;17.10;10.37;;;;;;;13.19;74.95;100746.00;5071935;28;20235;-64
2023/01/01 05:02:18;;;;;;;14.00;9.03;;;;;;;13.18;74.90;100753.16;5069036;28;20212;-63
2023/01/01 05:04:46;;;;;;;16.30;9.07;;;;;;;13.15;74.93;100758.78;5068562;28;20266;-64
2023/01/01 05:07:14;;;;;;;17.33;9.33;;;;;;;13.19;74.86;100760.09;5065448;28;20220;-64
2023/01/01 05:09:43;;;;;;;14.97;8.57;;;;;;;13.13;74.84;100758.09;5069465;28;20239;-63
2023/01/01 05:12:11;;;;;;;15.40;8.83;;;;;;;13.15;74.73;100752.59;5071255;28;20276;-62
2023/01/01 05:14:39;;;;;;;14.80;9.43;;;;;;;13.12;74.61;100756.38;5069854;28;20266;-63
2023/01/01 05:17:07;;;;;;;14.87;9.33;;;;;;;13.09;74.86;100761.22;5065798;28;20205;-64
2023/01/01 05:19:35;;;;;;;13.73;9.33;;;;;;;13.12;74.57;100761.72;5069819;28;20212;-63
2023/01/01 05:22:02;;;;;;;15.07;10.00;;;;;;;13.13;74.12;100760.75;5070009;28;20215;-62
2023/01/01 05:24:37;;;;;;;14.23;8.97;;;;;;;13.07;74.25;100758.69;5069474;28;20245;-63
2023/01/01 05:27:06;;;;;;;13.13;8.00;;;;;;;13.05;74.77;100765.16;5066898;28;20215;-63
2023/01/01 05:29:34;;;;;;;15.63;9.43;;;;;;;13.09;74.70;100771.84;5067526;28;20331;-62
2023/01/01 05:32:01;;;;;;;16.43;8.80;;;;;;;13.08;74.39;100776.34;5065626;28;20235;-63
2023/01/01 05:34:29;;;;;;;16.70;8.53;;;;;;;13.04;74.15;100774.97;5066975;28;20274;-64
2023/01/01 05:36:56;;;;;;;15.67;9.43;;;;;;;13.01;74.75;100791.28;5072508;28;20278;-63
2023/01/01 05:39:23;;;;;;;18.13;8.43;;;;;;;12.96;75.25;100787.41;5072640;28;20211;-63
2023/01/01 05:41:51;;;;;;;15.60;8.53;;;;;;;12.99;75.05;100779.94;5067813;28;20251;-63
2023/01/01 05:44:20;;;;;;;15.13;8.53;;;;;;;12.99;75.02;100776.44;5064872;28;20271;-63
2023/01/01 05:46:48;;;;;;;14.97;8.23;;;;;;;12.96;75.22;100792.72;5068094;28;20300;-63
2023/01/01 05:49:16;;;;;;;13.13;8.07;;;;;;;12.95;75.74;100796.38;5067665;28;20197;-63
2023/01/01 05:51:43;;;;;;;13.47;8.23;;;;;;;12.99;75.44;100805.72;5070557;28;20214;-63
2023/01/01 05:54:11;;;;;;;16.10;7.83;;;;;;;13.03;74.82;100805.25;5075439;28;20314;-63
2023/01/01 05:56:38;;;;;;;15.30;8.00;;;;;;;13.05;74.82;100807.75;5075728;28;20217;-64
2023/01/01 05:59:05;;;;;;;11.13;6.83;;;;;;;13.02;74.52;100803.56;5072820;28;20207;-64
2023/01/01 06:01:34;;;;;;;15.77;7.20;;;;;;;12.99;74.39;100798.56;5073950;28;20993;-63
2023/01/01 06:04:11;;;;;;;11.43;7.07;;;;;;;12.95;74.56;100802.53;5070805;28;22591;-64
2023/01/01 06:06:39;;;;;;;13.57;7.63;;;;;;;12.87;74.88;100810.44;5069236;28;20222;-63
2023/01/01 06:09:07;;;;;;;15.63;7.40;;;;;;;12.85;74.94;100812.44;5073186;28;20298;-63
2023/01/01 06:11:35;;;;;;;10.67;6.53;;;;;;;12.87;74.77;100807.78;5071074;28;20269;-64
2023/01/01 06:14:03;;;;;;;13.50;7.13;;;;;;;12.84;74.75;100810.75;5071225;28;20223;-63
2023/01/01 06:16:31;;;;;;;13.00;7.00;;;;;;;12.77;75.02;100820.34;5067422;28;20240;-63
2023/01/01 06:19:00;;;;;;;11.13;6.50;;;;;;;12.77;75.04;100820.34;5066605;28;20265;-64
2023/01/01 06:21:29;;;;;;;11.53;6.17;;;;;;;12.72;74.99;100822.66;5068353;28;20215;-63
2023/01/01 06:23:58;;;;;;;13.43;6.70;;;;;;;12.67;75.25;100827.56;5064965;28;20535;-62
2023/01/01 06:26:28;;;;;;;11.27;6.80;;;;;;;12.68;74.84;100824.75;5070038;28;20261;-63
2023/01/01 06:28:56;;;;;;;15.63;8.17;;;;;;;12.65;75.03;100824.25;5062990;28;20208;-64
2023/01/01 06:31:24;;;;;;;10.93;6.63;;;;;;;12.68;75.08;100831.91;5062843;28;20319;-62
2023/01/01 06:33:52;;;;;;;11.40;7.17;;;;;;;12.76;74.80;100829.31;5064090;28;20224;-62
2023/01/01 06:36:23;;;;;;;12.30;6.47;;;;;;;12.74;74.51;100831.31;5068754;28;20621;-62
2023/01/01 06:38:54;;;;;;;13.50;7.70;;;;;;;12.72;74.36;100833.28;5069605;28;20226;-62
2023/01/01 06:41:24;;;;;;;14.00;5.70;;;;;;;12.62;74.69;100822.72;5072596;28;20215;-62
2023/01/01 06:43:52;;;;;;;10.43;6.20;;;;;;;12.56;74.89;100841.13;5071854;28;20231;-63
2023/01/01 06:46:21;;;;;;;10.20;5.80;;;;;;;12.54;75.34;100843.09;5069812;28;20200;-64
2023/01/01 06:48:53;;;;;;;11.27;6.70;;;;;;;12.58;75.38;100844.44;5065261;28;20212;-63
2023/01/01 06:51:23;;;;;;;12.93;6.80;;;;;;;12.63;74.97;100847.50;5056001;28;20224;-64
2023/01/01 06:53:52;;;;;;;11.27;5.50;;;;;;;12.59;75.05;100846.97;5065083;28;20212;-61
2023/01/01 06:56:21;;;;;;;13.07;6.17;;;;;;;12.62;74.93;100865.28;5062044;28;20355;-63
2023/01/01 06:58:49;;;;;;;10.97;6.17;;;;;;;12.62;74.33;100849.31;5066149;28;21815;-64
2023/01/01 07:01:18;;;;;;;11.50;5.43;;;;;;;12.59;74.20;100860.25;5066355;28;20199;-63
2023/01/01 07:03:51;;;;;;;10.70;5.53;;;;;;;12.62;73.86;100869.78;5066443;28;20223;-63
2023/01/01 07:06:19;;;;;;;7.83;4.57;;;;;;;12.62;73.24;100867.13;5064525;28;20211;-64
2023/01/01 07:08:48;;;;;;;13.73;4.83;;;;;;;12.64;73.02;100873.97;5065561;28;20204;-62
2023/01/01 07:11:16;;;;;;;9.57;4.73;;;;;;;12.66;72.32;100876.47;5068355;28;20701;-63
2023/01/01 07:13:44;;;;;;;10.40;5.00;;;;;;;12.67;72.43;100862.16;5065708;28;20266;-63
2023/01/01 07:16:14;;;;;;;12.00;4.23;;;;;;;12.76;71.37;100877.22;5065562;28;20211;-63
2023/01/01 07:18:43;;;;;;;6.57;2.90;;;;;;;12.84;71.18;100877.28;5067706;28;20307;-63
2023/01/01 07:21:27;;;;;;;8.77;4.37;;;;;;;12.93;70.73;100878.22;5065497;28;20215;-63
2023/01/01 07:23:59;;;;;;;9.03;4.93;;;;;;;12.96;70.87;100884.06;5064843;28;20214;-62
2023/01/01 07:26:28;;;;;;;11.57;4.80;;;;;;;12.97;70.83;100887.56;5064634;28;20338;-62
2023/01/01 07:28:56;;;;;;;9.63;3.93;;;;;;;12.89;71.10;100883.00;5063941;28;20273;-63
2023/01/01 07:31:33;;;;;;;7.50;3.20;;;;;;;12.95;70.70;100887.72;5063900;28;20261;-63
2023/01/01 07:34:01;;;;;;;8.93;3.60;;;;;;;13.02;70.52;100891.41;5062545;28;20208;-63
2023/01/01 07:36:29;;;;;;;10.93;2.80;;;;;;;13.14;68.92;100900.03;5066092;28;20208;-63
2023/01/01 07:38:58;;;;;;;4.60;2.07;;;;;;;13.28;68.39;100890.69;5068275;28;20230;-63
2023/01/01 07:41:26;;;;;;;9.70;2.43;;;;;;;13.43;67.55;100902.44;5067816;28;20590;-63
2023/01/01 07:43:54;;;;;;;6.27;2.30;;;;;;;13.54;67.17;100910.19;5068236;28;20222;-64
2023/01/01 07:46:22;;;;;;;10.33;2.40;;;;;;;13.64;66.66;100924.22;5064907;28;20212;-63
2023/01/01 07:48:50;;;;;;;9.57;2.60;;;;;;;13.71;65.92;100932.44;5066043;28;20290;-62
2023/01/01 07:51:17;;;;;;;8.53;2.37;;;;;;;13.79;65.87;100927.16;5067923;28;20214;-63
2023/01/01 07:53:45;;;;;;;6.63;1.97;;;;;;;13.82;65.05;100925.00;5066387;28;20208;-64
2023/01/01 07:56:15;;;;;;;6.00;2.10;;;;;;;13.92;65.03;100936.38;5068844;28;20274;-64
2023/01/01 07:58:42;;;;;;;7.93;2.60;;;;;;;13.99;64.76;100933.06;5067118;28;20217;-62
2023/01/01 08:01:11;;;;;;;6.63;2.40;;;;;;;14.05;64.50;100925.28;5068960;28;20645;-62
2023/01/01 08:03:39;;;;;;;5.50;2.30;;;;;;;14.14;64.35;100928.84;5068865;28;20216;-64
2023/01/01 08:06:09;;;;;;;10.20;2.70;;;;;;;14.19;63.61;100918.50;5064910;28;20417;-63
2023/01/01 08:08:37;;;;;;;8.57;2.40;;;;;;;14.25;63.64;100920.53;5071704;28;20224;-63
2023/01/01 08:11:06;;;;;;;6.27;2.13;;;;;;;14.37;63.17;100926.41;5070752;28;21246;-63
2023/01/01 08:13:35;;;;;;;4.03;1.97;;;;;;;14.41;63.27;100930.47;5063399;28;20645;-63
2023/01/01 08:16:03;;;;;;;7.85;2.45;;;;;;;14.62;62.46;100929.03;5063148;28;20468;-62
2023/01/01 08:18:31;;;;;;;6.70;2.00;;;;;;;14.57;62.51;100939.38;5057088;28;20234;-61
2023/01/01 08:20:59;;;;;;;7.77;2.20;;;;;;;14.58;62.06;100942.88;5055965;28;20222;-62
2023/01/01 08:23:27;;;;;;;5.30;2.30;;;;;;;14.63;62.49;100938.69;5059308;28;20207;-62
2023/01/01 08:25:58;;;;;;;10.53;2.07;;;;;;;14.68;61.73;100939.06;5058114;28;20258;-62
2023/01/01 08:28:26;;;;;;;9.57;1.80;;;;;;;14.75;61.27;100935.72;5062938;28;20210;-63
2023/01/01 08:30:55;;;;;;;6.10;2.23;;;;;;;14.86;60.85;100930.09;5063294;28;21794;-62
2023/01/01 08:33:24;;;;;;;4.30;1.87;;;;;;;14.93;61.44;100931.94;5060846;28;20272;-63
2023/01/01 08:35:52;;;;;;;12.93;2.30;;;;;;;15.02;61.14;100924.75;5055632;28;20703;-62
2023/01/01 08:38:21;;;;;;;5.60;1.97;;;;;;;15.01;60.32;100939.09;5064006;28;20562;-61
2023/01/01 08:40:49;;;;;;;4.50;1.60;;;;;;;15.15;60.63;100941.13;5060338;28;21182;-59
2023/01/01 08:43:17;;;;;;;7.03;2.00;;;;;;;15.21;60.49;100948.47;5061441;28;20211;-60
2023/01/01 08:45:45;;;;;;;8.67;2.17;;;;;;;15.24;60.09;100945.47;5064647;28;20660;-62
2023/01/01 08:48:14;;;;;;;8.13;2.10;;;;;;;15.29;59.75;100945.81;5059095;28;20211;-62
2023/01/01 08:50:42;;;;;;;7.53;1.87;;;;;;;15.30;59.73;100936.75;5055206;28;20299;-62
2023/01/01 08:53:10;;;;;;;9.00;2.37;;;;;;;15.35;59.73;100934.44;5058209;28;20213;-61
2023/01/01 08:55:37;;;;;;;9.40;2.23;;;;;;;15.38;59.18;100936.78;5055174;28;20223;-61
2023/01/01 08:58:06;;;;;;;4.67;1.83;;;;;;;15.42;59.10;100959.50;5058107;28;20204;-61
2023/01/01 09:00:34;;;;;;;8.70;2.20;;;;;;;15.44;59.08;100962.00;5060398;28;20215;-60
2023/01/01 09:03:01;;;;;;;9.37;2.63;;;;;;;15.49;59.00;100959.63;5059782;28;20208;-60
2023/01/01 09:05:31;;;;;;;5.03;1.90;;;;;;;15.54;59.26;100965.38;5061280;28;20302;-60
2023/01/01 09:07:58;;;;;;;8.97;2.20;;;;;;;15.62;59.04;100959.19;5060620;28;20211;-60
2023/01/01 09:10:26;;;;;;;10.77;3.03;;;;;;;15.66;58.89;100974.69;5059997;28;20199;-61
2023/01/01 09:12:54;;;;;;;8.03;2.27;;;;;;;15.66;58.94;100981.88;5058205;28;20207;-60
2023/01/01 09:15:21;;;;;;;8.30;2.23;;;;;;;15.71;59.27;100982.22;5057599;28;20239;-60
2023/01/01 09:17:50;;;;;;;10.20;3.20;;;;;;;15.78;58.95;100983.22;5058214;28;20208;-61
2023/01/01 09:20:18;;;;;;;8.03;2.63;;;;;;;15.90;58.97;100976.53;5056614;28;20207;-60
2023/01/01 09:22:47;;;;;;;12.33;2.93;;;;;;;16.01;58.35;100981.50;5055234;28;20208;-60
2023/01/01 09:25:15;;;;;;;13.20;2.97;;;;;;;16.07;58.88;100994.19;5046504;28;20242;-60
2023/01/01 09:27:42;;;;;;;9.87;2.40;;;;;;;16.16;58.15;101003.88;5056530;28;20219;-61
2023/01/01 09:30:11;;;;;;;12.60;2.70;;;;;;;16.27;57.41;100997.28;5060795;28;20215;-61
2023/01/01 09:32:39;;;;;;;11.70;5.40;;;;;;;16.32;58.03;100999.47;5059551;28;20223;-61
2023/01/01 09:35:07;;;;;;;9.77;3.47;;;;;;;16.51;56.78;101009.78;5057698;28;20664;-61
2023/01/01 09:37:34;;;;;;;11.47;3.97;;;;;;;16.48;56.99;101002.09;5061595;28;20215;-61
2023/01/01 09:40:04;;;;;;;7.00;3.27;;;;;;;16.44;57.06;101009.66;5059536;28;20735;-61
2023/01/01 09:42:40;;;;;;;9.70;3.87;;;;;;;16.50;57.19;101010.78;5057566;28;20203;-61
2023/01/01 09:45:31;;;;;;;9.63;3.37;;;;;;;16.43;57.36;101013.31;5059717;28;20321;-61
2023/01/01 09:48:02;;;;;;;12.40;3.27;;;;;;;16.44;56.92;101014.16;5055736;28;20752;-61
2023/01/01 09:50:35;;;;;;;9.33;4.10;;;;;;;16.43;57.28;101007.13;5058955;28;20207;-61
2023/01/01 09:53:09;;;;;;;11.27;4.03;;;;;;;16.39;57.33;100997.75;5058001;28;20249;-61
2023/01/01 09:55:44;;;;;;;9.47;3.57;;;;;;;16.36;57.04;101006.16;5055326;28;20260;-61
2023/01/01 09:58:13;;;;;;;9.67;3.17;;;;;;;16.30;57.41;101002.31;5056827;28;20579;-62
2023/01/01 10:00:44;;;;;;;9.67;4.20;;;;;;;16.36;56.84;100995.47;5058876;28;20218;-62
2023/01/01 10:03:29;;;;;;;11.00;3.87;;;;;;;16.37;56.87;100994.41;5056032;28;20264;-62
2023/01/01 10:06:06;;;;;;;11.13;3.27;;;;;;;16.29;57.47;100987.25;5054812;28;20243;-63
2023/01/01 10:08:47;;;;;;;11.03;3.90;;;;;;;16.37;57.67;100992.59;5058005;28;20564;-61
2023/01/01 10:11:24;;;;;;;10.73;3.37;;;;;;;16.43;57.18;101004.47;5061600;28;20223;-61
2023/01/01 10:13:56;;;;;;;9.50;3.07;;;;;;;16.46;57.27;100993.38;5057368;28;20199;-62
2023/01/01 10:16:32;;;;;;;10.67;3.20;;;;;;;16.47;57.61;100995.88;5058128;28;20655;-61
2023/01/01 10:19:07;;;;;;;6.97;3.20;;;;;;;16.73;56.82;100997.47;5055416;28;20213;-61
2023/01/01 10:21:39;;;;;;;9.43;3.40;;;;;;;16.79;56.48;100991.44;5059710;28;20828;-61
2023/01/01 10:24:31;;;;;;;7.23;2.90;;;;;;;16.85;56.24;100994.25;5056692;28;20330;-60
2023/01/01 10:27:03;;;;;;;10.60;3.13;;;;;;;16.80;56.49;100988.56;5058222;28;20226;-60
2023/01/01 10:29:38;;;;;;;12.43;3.30;;;;;;;16.77;56.77;100993.47;5056044;28;20212;-60
2023/01/01 10:32:17;;;;;;;9.87;3.43;;;;;;;16.85;56.38;100985.38;5057464;28;20210;-61
2023/01/01 10:34:45;;;;;;;8.23;3.17;;;;;;;17.01;56.48;100992.47;5053743;28;20199;-61
2023/01/01 10:37:14;;;;;;;9.63;3.17;;;;;;;17.44;55.18;100983.78;5055759;28;20884;-60
2023/01/01 10:39:43;;;;;;;9.33;3.10;;;;;;;17.62;54.69;100983.47;5057101;28;20215;-61
2023/01/01 10:42:14;;;;;;;8.57;2.90;;;;;;;17.71;54.17;100982.41;5057906;28;20221;-61
2023/01/01 10:44:43;;;;;;;7.63;3.37;;;;;;;17.70;53.96;100977.22;5057186;28;20203;-61
2023/01/01 10:47:24;;;;;;;10.10;4.20;;;;;;;17.67;53.73;100971.22;5058756;28;20203;-61
2023/01/01 10:49:59;;;;;;;8.13;4.03;;;;;;;17.56;54.27;100971.63;5059469;28;20211;-61
2023/01/01 10:52:31;;;;;;;9.87;2.77;;;;;;;17.71;54.04;100970.84;5058362;28;20269;-61
2023/01/01 10:54:59;;;;;;;15.97;3.43;;;;;;;18.53;52.66;100971.59;5043747;28;20232;-61
2023/01/01 10:57:36;;;;;;;7.93;2.67;;;;;;;19.41;50.09;100969.47;5054905;28;20265;-58
2023/01/01 11:00:20;;;;;;;11.03;2.90;;;;;;;19.83;48.82;100971.28;5056335;28;20214;-61
2023/01/01 11:03:05;;;;;;;10.80;2.70;;;;;;;20.02;47.91;100964.38;5056059;28;20204;-61
2023/01/01 11:05:33;;;;;;;8.03;2.47;;;;;;;20.03;47.61;100965.19;5054608;28;20248;-61
2023/01/01 11:08:00;;;;;;;7.50;2.83;;;;;;;20.01;47.98;100961.88;5057198;28;20199;-61
2023/01/01 11:10:30;;;;;;;9.43;3.17;;;;;;;19.83;47.73;100965.06;5061163;28;20227;-61
2023/01/01 11:12:59;;;;;;;7.20;3.23;;;;;;;19.32;48.66;100964.41;5058349;28;20207;-61
2023/01/01 11:15:37;;;;;;;7.13;2.90;;;;;;;18.74;49.91;100959.06;5053656;28;20198;-61
2023/01/01 11:18:06;;;;;;;10.93;3.03;;;;;;;18.23;51.28;100955.50;5059229;28;20282;-61
2023/01/01 11:20:34;;;;;;;6.63;2.60;;;;;;;17.89;52.63;100957.91;5059651;28;20227;-61
2023/01/01 11:23:19;;;;;;;7.03;2.53;;;;;;;17.62;53.24;100944.09;5059076;28;20218;-61
2023/01/01 11:26:06;;;;;;;8.37;2.57;;;;;;;17.34;54.07;100944.81;5059377;28;20242;-62
2023/01/01 11:28:36;;;;;;;6.97;2.03;;;;;;;17.14;55.07;100955.22;5051958;28;20209;-63
2023/01/01 11:31:10;;;;;;;6.07;2.50;;;;;;;16.97;55.88;100953.66;5057168;28;20236;-62
2023/01/01 11:33:43;;;;;;;6.50;2.37;;;;;;;16.85;56.08;100945.19;5055654;28;20203;-62
2023/01/01 11:36:12;;;;;;;11.10;2.80;;;;;;;16.73;57.13;100944.75;5057567;28;20226;-62
2023/01/01 11:38:39;;;;;;;14.17;3.60;;;;;;;16.63;57.49;100949.50;5058125;28;20203;-62